Time;durP1;ratioP1;P1;durP2;ratioP2;P2;SDS_P1;SDS_P2;PMS_P1;PMS_P2;Temp;Humidity;BMP_temperature;BMP_pressure;BME280_temperature;BME280_humidity;BME280_pressure;Samples;Min_cycle;Max_cycle;Signal;HPM_P1;HPM_P2
2023/07/05 00:00:54;;;;;;;10.65;5.93;;;;;;;;;;5092143;28;20044;-76
2023/07/05 00:03:20;;;;;;;11.38;5.60;;;;;;;;;;5091560;28;20048;-77
2023/07/05 00:05:46;;;;;;;11.52;5.32;;;;;;;;;;5091778;28;20047;-79
2023/07/05 00:08:12;;;;;;;11.23;5.43;;;;;;;;;;5091261;28;20542;-78
2023/07/05 00:10:38;;;;;;;12.40;5.97;;;;;;;;;;5091400;28;20128;-79
2023/07/05 00:13:05;;;;;;;12.65;6.25;;;;;;;;;;5091757;28;20036;-78
2023/07/05 00:15:31;;;;;;;10.93;5.47;;;;;;;;;;5091220;28;20043;-79
2023/07/05 00:17:58;;;;;;;11.45;5.57;;;;;;;;;;5074607;28;20089;-79
2023/07/05 00:20:24;;;;;;;15.63;6.18;;;;;;;;;;5091600;28;20039;-78
2023/07/05 00:22:52;;;;;;;9.45;5.82;;;;;;;;;;5090957;28;20044;-78
2023/07/05 00:25:18;;;;;;;10.93;5.95;;;;;;;;;;5077150;28;20040;-78
2023/07/05 00:27:44;;;;;;;13.32;6.18;;;;;;;;;;5092311;28;20497;-79
2023/07/05 00:30:11;;;;;;;12.70;6.28;;;;;;;;;;5091361;28;20501;-79
2023/07/05 00:32:37;;;;;;;10.77;5.80;;;;;;;;;;5090435;28;20035;-78
2023/07/05 00:35:03;;;;;;;11.40;6.38;;;;;;;;;;5090908;28;20036;-77
2023/07/05 00:37:29;;;;;;;11.70;6.53;;;;;;;;;;5090571;28;20556;-79
2023/07/05 00:39:55;;;;;;;13.27;6.72;;;;;;;;;;5074428;28;20043;-79
2023/07/05 00:42:21;;;;;;;11.60;6.30;;;;;;;;;;5090660;28;20089;-78
2023/07/05 00:45:23;;;;;;;14.88;5.88;;;;;;;;;;5090493;28;20040;-78
2023/07/05 00:47:49;;;;;;;13.60;6.32;;;;;;;;;;5091210;28;20063;-79
2023/07/05 00:50:23;;;;;;;15.95;6.68;;;;;;;;;;5091539;28;20395;-78
2023/07/05 00:52:50;;;;;;;10.93;6.30;;;;;;;;;;5090536;28;20043;-78
2023/07/05 00:55:16;;;;;;;15.57;7.30;;;;;;;;;;5090995;28;20048;-78
2023/07/05 00:57:43;;;;;;;10.52;6.40;;;;;;;;;;5089921;28;20097;-81
2023/07/05 01:00:12;;;;;;;16.63;7.82;;;;;;;;;;5090936;28;20055;-80
2023/07/05 01:02:40;;;;;;;15.15;7.43;;;;;;;;;;5090596;28;20484;-79
2023/07/05 01:05:08;;;;;;;11.80;7.60;;;;;;;;;;5090946;28;20442;-78
2023/07/05 01:07:35;;;;;;;13.40;7.53;;;;;;;;;;5074156;28;20047;-79
2023/07/05 01:10:01;;;;;;;14.70;8.02;;;;;;;;;;5081698;28;20089;-80
2023/07/05 01:12:38;;;;;;;15.02;7.97;;;;;;;;;;5090345;28;20122;-78
2023/07/05 01:15:11;;;;;;;15.70;7.68;;;;;;;;;;5090446;28;20050;-80
2023/07/05 01:17:42;;;;;;;14.95;8.70;;;;;;;;;;5074421;28;20131;-78
2023/07/05 01:20:21;;;;;;;14.50;8.93;;;;;;;;;;5074569;28;20490;-78
2023/07/05 01:22:50;;;;;;;19.52;8.65;;;;;;;;;;5090551;28;20059;-79
2023/07/05 01:25:19;;;;;;;17.13;9.52;;;;;;;;;;5073637;28;20533;-80
2023/07/05 01:28:04;;;;;;;15.68;8.98;;;;;;;;;;5090526;28;20047;-75
2023/07/05 01:30:42;;;;;;;15.88;9.35;;;;;;;;;;5063839;28;20044;-75
2023/07/05 01:33:20;;;;;;;17.58;9.57;;;;;;;;;;5090840;28;20071;-75
2023/07/05 01:35:50;;;;;;;17.15;9.35;;;;;;;;;;5089667;28;20059;-74
2023/07/05 01:38:16;;;;;;;22.52;10.63;;;;;;;;;;5090337;28;20051;-75
2023/07/05 01:40:45;;;;;;;15.98;10.27;;;;;;;;;;5090305;28;20036;-80
2023/07/05 01:43:12;;;;;;;16.05;9.18;;;;;;;;;;5090576;28;20393;-79
2023/07/05 01:45:54;;;;;;;19.27;9.50;;;;;;;;;;5089146;28;20040;-79
2023/07/05 01:48:37;;;;;;;18.65;10.18;;;;;;;;;;5092691;28;20044;-80
2023/07/05 01:51:26;;;;;;;17.10;10.20;;;;;;;;;;5093730;28;20044;-79
2023/07/05 01:54:10;;;;;;;19.73;11.38;;;;;;;;;;5093793;28;20517;-74
2023/07/05 01:56:52;;;;;;;19.50;10.88;;;;;;;;;;5093545;28;20419;-75
2023/07/05 01:59:22;;;;;;;18.75;10.77;;;;;;;;;;5093422;28;20052;-74
2023/07/05 02:01:50;;;;;;;17.85;11.10;;;;;;;;;;5089995;28;20089;-74
2023/07/05 02:04:16;;;;;;;19.92;11.90;;;;;;;;;;5093528;28;20054;-74
2023/07/05 02:06:43;;;;;;;19.92;12.52;;;;;;;;;;5091748;28;20032;-74
2023/07/05 02:09:09;;;;;;;20.27;12.02;;;;;;;;;;5069711;28;20045;-72
2023/07/05 02:11:36;;;;;;;22.30;12.05;;;;;;;;;;5093264;28;20044;-72
2023/07/05 02:14:02;;;;;;;19.95;11.57;;;;;;;;;;5094191;28;20044;-74
2023/07/05 02:16:28;;;;;;;21.65;12.45;;;;;;;;;;5069480;28;20496;-73
2023/07/05 02:18:54;;;;;;;21.45;11.85;;;;;;;;;;5069360;28;20086;-73
2023/07/05 02:21:20;;;;;;;23.50;12.93;;;;;;;;;;5089095;28;20044;-74
2023/07/05 02:23:46;;;;;;;20.85;12.98;;;;;;;;;;5093087;28;20043;-76
2023/07/05 02:26:13;;;;;;;24.05;12.88;;;;;;;;;;5093541;28;20096;-74
2023/07/05 02:28:39;;;;;;;21.00;12.82;;;;;;;;;;5067790;28;20119;-73
2023/07/05 02:31:06;;;;;;;21.60;12.05;;;;;;;;;;5093670;28;20063;-72
2023/07/05 02:33:34;;;;;;;18.67;11.90;;;;;;;;;;5094616;28;20089;-73
2023/07/05 02:36:06;;;;;;;20.17;13.48;;;;;;;;;;5093093;28;20039;-73
2023/07/05 02:38:32;;;;;;;19.08;12.88;;;;;;;;;;5090200;28;20040;-72
2023/07/05 02:40:58;;;;;;;22.15;13.75;;;;;;;;;;5092909;28;20051;-73
2023/07/05 02:43:24;;;;;;;26.58;13.90;;;;;;;;;;5092882;28;20032;-71
2023/07/05 02:45:50;;;;;;;26.60;13.70;;;;;;;;;;5076405;28;20436;-72
2023/07/05 02:48:16;;;;;;;24.02;14.13;;;;;;;;;;5093356;28;20097;-72
2023/07/05 02:50:43;;;;;;;22.45;13.38;;;;;;;;;;5092017;28;20068;-71
2023/07/05 02:53:09;;;;;;;21.67;13.43;;;;;;;;;;5094365;28;20085;-74
2023/07/05 02:55:35;;;;;;;22.63;13.52;;;;;;;;;;5092881;28;20032;-73
2023/07/05 02:58:01;;;;;;;21.20;13.48;;;;;;;;;;5092282;28;20040;-74
2023/07/05 03:00:29;;;;;;;23.90;13.82;;;;;;;;;;5092777;28;20131;-74
2023/07/05 03:02:56;;;;;;;23.42;12.73;;;;;;;;;;5092610;28;20048;-74
2023/07/05 03:05:22;;;;;;;20.45;12.85;;;;;;;;;;5093297;28;20036;-73
2023/07/05 03:07:48;;;;;;;21.10;12.40;;;;;;;;;;5093521;28;20040;-73
2023/07/05 03:10:14;;;;;;;18.05;12.48;;;;;;;;;;5075668;28;20499;-73
2023/07/05 03:12:40;;;;;;;22.70;13.88;;;;;;;;;;5091604;28;20048;-74
2023/07/05 03:15:07;;;;;;;22.45;14.30;;;;;;;;;;5092920;28;20062;-73
2023/07/05 03:17:33;;;;;;;23.25;14.02;;;;;;;;;;5093885;28;20040;-73
2023/07/05 03:19:59;;;;;;;23.35;14.55;;;;;;;;;;5092480;28;20126;-72
2023/07/05 03:22:28;;;;;;;24.85;15.30;;;;;;;;;;5093837;28;20484;-73
2023/07/05 03:24:55;;;;;;;23.75;13.98;;;;;;;;;;5091244;28;20034;-72
2023/07/05 03:27:21;;;;;;;21.30;13.02;;;;;;;;;;5092513;28;20036;-73
2023/07/05 03:29:50;;;;;;;27.15;13.77;;;;;;;;;;5092249;28;20119;-73
2023/07/05 03:32:16;;;;;;;18.77;12.80;;;;;;;;;;5076016;28;20046;-74
2023/07/05 03:34:42;;;;;;;20.52;13.50;;;;;;;;;;5092013;28;20135;-75
2023/07/05 03:37:08;;;;;;;20.10;13.30;;;;;;;;;;5091863;28;20079;-76
2023/07/05 03:39:34;;;;;;;22.85;12.80;;;;;;;;;;5092621;28;20428;-74
2023/07/05 03:42:02;;;;;;;19.60;13.70;;;;;;;;;;5058465;28;20074;-75
2023/07/05 03:44:28;;;;;;;20.80;14.02;;;;;;;;;;5092038;28;20090;-73
2023/07/05 03:46:54;;;;;;;20.27;12.07;;;;;;;;;;5091810;28;20385;-74
2023/07/05 03:49:20;;;;;;;21.17;12.75;;;;;;;;;;5093365;28;20119;-74
2023/07/05 03:51:46;;;;;;;17.73;11.73;;;;;;;;;;5091566;28;20442;-74
2023/07/05 03:54:12;;;;;;;18.67;10.80;;;;;;;;;;5092410;28;20050;-74
2023/07/05 03:56:38;;;;;;;16.17;9.45;;;;;;;;;;5092890;28;20036;-72
2023/07/05 03:59:04;;;;;;;15.15;9.40;;;;;;;;;;5091337;28;20538;-73
2023/07/05 04:01:31;;;;;;;12.48;8.40;;;;;;;;;;5087048;28;20054;-72
2023/07/05 04:03:58;;;;;;;19.52;8.90;;;;;;;;;;5087568;28;20039;-72
2023/07/05 04:06:26;;;;;;;13.15;7.85;;;;;;;;;;5073855;28;20477;-72
2023/07/05 04:08:52;;;;;;;10.75;6.47;;;;;;;;;;5091410;28;20488;-75
2023/07/05 04:11:18;;;;;;;9.65;6.05;;;;;;;;;;5092414;28;20111;-75
2023/07/05 04:13:48;;;;;;;8.60;5.03;;;;;;;;;;5091636;28;20042;-72
2023/07/05 04:16:15;;;;;;;6.90;4.57;;;;;;;;;;5090916;28;20484;-75
2023/07/05 04:18:42;;;;;;;7.82;3.97;;;;;;;;;;5091349;28;20036;-75
2023/07/05 04:21:09;;;;;;;7.45;3.72;;;;;;;;;;5091438;28;20032;-72
2023/07/05 04:23:35;;;;;;;6.85;3.50;;;;;;;;;;5074806;28;20036;-75
2023/07/05 04:26:02;;;;;;;10.25;3.80;;;;;;;;;;5090917;28;20075;-76
2023/07/05 04:28:29;;;;;;;7.60;3.80;;;;;;;;;;5090857;28;20481;-74
2023/07/05 04:30:55;;;;;;;7.68;3.88;;;;;;;;;;5091004;28;20036;-76
2023/07/05 04:33:21;;;;;;;7.80;3.80;;;;;;;;;;5091079;28;20097;-76
2023/07/05 04:35:48;;;;;;;8.20;4.60;;;;;;;;;;5091511;28;20594;-76
2023/07/05 04:38:15;;;;;;;9.80;4.30;;;;;;;;;;5089866;28;20051;-72
2023/07/05 04:40:41;;;;;;;7.07;4.15;;;;;;;;;;5091373;28;20047;-74
2023/07/05 04:43:07;;;;;;;11.30;4.70;;;;;;;;;;5090992;28;20476;-75
2023/07/05 04:45:33;;;;;;;8.15;3.70;;;;;;;;;;5090957;28;20032;-76
2023/07/05 04:47:59;;;;;;;7.57;4.35;;;;;;;;;;5091854;28;20508;-76
2023/07/05 04:50:26;;;;;;;8.55;4.60;;;;;;;;;;5091110;28;20075;-81
2023/07/05 04:52:52;;;;;;;6.85;4.25;;;;;;;;;;5090864;28;20093;-83
2023/07/05 04:55:18;;;;;;;9.05;4.32;;;;;;;;;;5089556;28;20080;-82
2023/07/05 04:57:44;;;;;;;9.27;4.63;;;;;;;;;;5090194;28;20028;-81
2023/07/05 05:00:11;;;;;;;7.10;4.72;;;;;;;;;;5091312;28;20105;-80
2023/07/05 05:02:37;;;;;;;9.07;4.72;;;;;;;;;;5089540;28;20566;-75
2023/07/05 05:05:04;;;;;;;8.52;5.10;;;;;;;;;;5073592;28;20492;-75
2023/07/05 05:07:30;;;;;;;7.20;4.90;;;;;;;;;;5090828;28;20048;-75
2023/07/05 05:09:57;;;;;;;8.40;5.20;;;;;;;;;;5089974;28;20044;-83
2023/07/05 05:12:23;;;;;;;7.97;4.90;;;;;;;;;;5084233;28;20388;-79
2023/07/05 05:14:50;;;;;;;10.10;5.22;;;;;;;;;;5090477;28;20036;-80
2023/07/05 05:17:16;;;;;;;7.10;5.15;;;;;;;;;;5090260;28;20039;-80
2023/07/05 05:19:42;;;;;;;8.50;5.03;;;;;;;;;;5090336;28;20040;-81
2023/07/05 05:22:09;;;;;;;8.80;5.35;;;;;;;;;;5092626;28;20066;-82
2023/07/05 05:24:35;;;;;;;7.13;4.65;;;;;;;;;;5094259;28;20036;-83
2023/07/05 05:27:01;;;;;;;8.40;4.90;;;;;;;;;;5092297;28;20116;-80
2023/07/05 05:29:29;;;;;;;9.45;4.97;;;;;;;;;;5089118;28;20044;-79
2023/07/05 05:31:56;;;;;;;8.20;5.30;;;;;;;;;;5094332;28;20519;-81
2023/07/05 05:34:22;;;;;;;6.38;4.95;;;;;;;;;;5070581;28;20122;-80
2023/07/05 05:36:48;;;;;;;6.75;4.90;;;;;;;;;;5094639;28;20557;-80
2023/07/05 05:39:14;;;;;;;7.90;4.82;;;;;;;;;;5093543;28;20063;-80
2023/07/05 05:41:40;;;;;;;8.18;4.78;;;;;;;;;;5075872;28;20084;-81
2023/07/05 05:44:06;;;;;;;8.82;4.50;;;;;;;;;;5077221;28;20032;-81
2023/07/05 05:46:33;;;;;;;7.32;4.53;;;;;;;;;;5092988;28;20086;-79
2023/07/05 05:48:59;;;;;;;9.27;4.43;;;;;;;;;;5076533;28;20072;-80
2023/07/05 05:51:26;;;;;;;7.22;4.45;;;;;;;;;;5094133;28;20039;-78
2023/07/05 05:53:52;;;;;;;6.43;4.10;;;;;;;;;;5094008;28;20040;-81
2023/07/05 05:56:19;;;;;;;11.30;5.20;;;;;;;;;;5077396;28;20431;-81
2023/07/05 05:58:46;;;;;;;9.32;4.55;;;;;;;;;;5060680;28;20504;-80
2023/07/05 06:01:12;;;;;;;8.07;4.22;;;;;;;;;;5093532;28;20501;-79
2023/07/05 06:03:38;;;;;;;8.82;4.28;;;;;;;;;;5077138;28;20469;-78
2023/07/05 06:06:05;;;;;;;6.63;3.55;;;;;;;;;;5094933;28;20118;-80
2023/07/05 06:08:32;;;;;;;7.00;3.88;;;;;;;;;;5093473;28;20035;-80
2023/07/05 06:10:59;;;;;;;5.47;2.90;;;;;;;;;;5094548;28;20499;-80
2023/07/05 06:13:26;;;;;;;6.00;3.38;;;;;;;;;;5095039;28;20455;-80
2023/07/05 06:15:56;;;;;;;6.40;3.10;;;;;;;;;;5088013;28;20044;-81
2023/07/05 06:18:22;;;;;;;8.70;3.28;;;;;;;;;;5079682;28;20036;-80
2023/07/05 06:20:48;;;;;;;5.80;3.00;;;;;;;;;;5093428;28;20092;-80
2023/07/05 06:23:14;;;;;;;4.88;2.70;;;;;;;;;;5093158;28;20036;-81
2023/07/05 06:25:40;;;;;;;5.32;2.83;;;;;;;;;;5093688;28;20047;-81
2023/07/05 06:28:06;;;;;;;5.40;2.97;;;;;;;;;;5076468;28;20092;-79
2023/07/05 06:30:33;;;;;;;4.93;2.70;;;;;;;;;;5093838;28;20036;-78
2023/07/05 06:32:59;;;;;;;7.05;3.10;;;;;;;;;;5092884;28;20126;-81
2023/07/05 06:35:25;;;;;;;6.55;2.83;;;;;;;;;;5093082;28;20036;-79
2023/07/05 06:37:51;;;;;;;7.15;3.60;;;;;;;;;;5059231;28;20054;-80
2023/07/05 06:40:17;;;;;;;5.47;3.10;;;;;;;;;;5077475;28;20549;-78
2023/07/05 06:42:43;;;;;;;5.85;3.65;;;;;;;;;;5090729;28;20493;-79
2023/07/05 06:45:09;;;;;;;7.00;3.50;;;;;;;;;;5089149;28;20040;-78
2023/07/05 06:47:37;;;;;;;10.75;3.70;;;;;;;;;;5075699;28;20077;-78
2023/07/05 06:50:03;;;;;;;7.65;3.88;;;;;;;;;;5093647;28;20376;-79
2023/07/05 06:52:29;;;;;;;7.65;3.35;;;;;;;;;;5093414;28;20047;-80
2023/07/05 06:54:55;;;;;;;7.97;3.50;;;;;;;;;;5092976;28;20051;-80
2023/07/05 06:57:21;;;;;;;5.63;2.60;;;;;;;;;;5092576;28;20046;-79
2023/07/05 06:59:47;;;;;;;6.47;2.30;;;;;;;;;;5092464;28;20041;-79
2023/07/05 07:02:13;;;;;;;5.32;2.13;;;;;;;;;;5091919;28;20113;-79
2023/07/05 07:04:40;;;;;;;4.05;2.20;;;;;;;;;;5092810;28;20059;-74
2023/07/05 07:07:06;;;;;;;4.32;2.22;;;;;;;;;;5091029;28;20104;-73
2023/07/05 07:09:33;;;;;;;6.72;2.30;;;;;;;;;;5090626;28;20397;-76
2023/07/05 07:11:59;;;;;;;8.13;2.70;;;;;;;;;;5092038;28;20067;-74
2023/07/05 07:14:25;;;;;;;4.85;2.78;;;;;;;;;;5061443;28;20044;-75
2023/07/05 07:16:51;;;;;;;6.13;2.88;;;;;;;;;;5092302;28;20047;-77
2023/07/05 07:19:18;;;;;;;5.55;2.50;;;;;;;;;;5091736;28;20097;-76
2023/07/05 07:21:44;;;;;;;5.25;1.98;;;;;;;;;;5091026;28;20043;-75
2023/07/05 07:24:11;;;;;;;4.75;1.60;;;;;;;;;;5092720;28;20063;-76
2023/07/05 07:26:37;;;;;;;2.63;1.10;;;;;;;;;;5075477;28;20488;-75
2023/07/05 07:29:03;;;;;;;3.83;0.93;;;;;;;;;;5092146;28;20040;-74
2023/07/05 07:31:30;;;;;;;3.17;0.80;;;;;;;;;;5092159;28;20069;-82
2023/07/05 07:33:57;;;;;;;3.20;0.70;;;;;;;;;;5092500;28;20036;-80
2023/07/05 07:36:25;;;;;;;3.33;0.80;;;;;;;;;;5091620;28;20036;-80
2023/07/05 07:38:51;;;;;;;2.30;0.88;;;;;;;;;;5093545;28;20066;-80
2023/07/05 07:41:20;;;;;;;4.63;1.10;;;;;;;;;;5091982;28;20032;-82
2023/07/05 07:43:47;;;;;;;4.40;1.30;;;;;;;;;;5092070;28;20032;-82
2023/07/05 07:46:14;;;;;;;4.35;1.20;;;;;;;;;;5075154;28;20553;-81
2023/07/05 07:48:42;;;;;;;3.88;1.00;;;;;;;;;;5093519;28;20066;-82
2023/07/05 07:51:08;;;;;;;3.72;1.13;;;;;;;;;;5077250;28;20397;-78
2023/07/05 07:53:34;;;;;;;2.72;0.93;;;;;;;;;;5074298;28;20075;-75
2023/07/05 07:56:00;;;;;;;2.17;1.10;;;;;;;;;;5074562;28;20516;-74
2023/07/05 07:58:26;;;;;;;3.97;1.50;;;;;;;;;;5091474;28;20093;-75
2023/07/05 08:00:53;;;;;;;5.38;1.33;;;;;;;;;;5090789;28;20113;-73
2023/07/05 08:03:19;;;;;;;4.20;1.10;;;;;;;;;;5091023;28;20496;-74
2023/07/05 08:05:50;;;;;;;4.40;1.05;;;;;;;;;;5091135;28;20032;-74
2023/07/05 08:08:16;;;;;;;3.63;1.10;;;;;;;;;;5089671;28;20043;-73
2023/07/05 08:10:42;;;;;;;4.47;1.30;;;;;;;;;;5073995;28;20051;-75
2023/07/05 08:13:08;;;;;;;5.28;1.60;;;;;;;;;;5090708;28;20040;-73
2023/07/05 08:15:34;;;;;;;8.10;1.40;;;;;;;;;;5091273;28;20115;-72
2023/07/05 08:18:00;;;;;;;6.03;1.40;;;;;;;;;;5092158;28;20051;-73
2023/07/05 08:20:26;;;;;;;7.15;1.30;;;;;;;;;;5091237;28;20031;-72
2023/07/05 08:22:52;;;;;;;6.65;1.60;;;;;;;;;;5091218;28;20040;-78
2023/07/05 08:25:18;;;;;;;7.78;1.83;;;;;;;;;;5091134;28;20037;-75
2023/07/05 08:27:44;;;;;;;10.27;1.90;;;;;;;;;;5090508;28;20055;-73
2023/07/05 08:30:10;;;;;;;7.57;1.90;;;;;;;;;;5091107;28;20072;-82
2023/07/05 08:32:37;;;;;;;12.80;2.50;;;;;;;;;;5090788;28;20036;-72
2023/07/05 08:35:04;;;;;;;15.55;3.00;;;;;;;;;;5090616;28;20041;-75
2023/07/05 08:37:30;;;;;;;14.27;2.95;;;;;;;;;;5090051;28;20043;-80
2023/07/05 08:39:56;;;;;;;12.68;3.13;;;;;;;;;;5090641;28;20058;-80
2023/07/05 08:42:39;;;;;;;12.77;2.63;;;;;;;;;;5073966;28;20032;-81
2023/07/05 08:45:11;;;;;;;10.68;2.78;;;;;;;;;;5063777;28;20036;-80
2023/07/05 08:47:52;;;;;;;14.70;3.35;;;;;;;;;;5072913;28;20039;-81
2023/07/05 08:50:24;;;;;;;15.13;3.72;;;;;;;;;;5067399;28;20121;-73
2023/07/05 08:52:53;;;;;;;9.55;2.47;;;;;;;;;;5087241;28;20040;-75
2023/07/05 08:55:23;;;;;;;10.43;1.85;;;;;;;;;;5074094;28;20485;-74
2023/07/05 08:57:53;;;;;;;7.43;1.30;;;;;;;;;;5089778;28;20036;-77
2023/07/05 09:00:40;;;;;;;6.07;1.23;;;;;;;;;;5090291;28;20043;-74
2023/07/05 09:03:10;;;;;;;6.28;0.90;;;;;;;;;;5090688;28;20420;-79
2023/07/05 09:05:52;;;;;;;7.10;1.40;;;;;;;;;;5090235;28;20097;-77
2023/07/05 09:08:19;;;;;;;4.95;1.00;;;;;;;;;;5079851;28;20493;-75
2023/07/05 09:10:48;;;;;;;5.22;0.90;;;;;;;;;;5089218;28;20046;-76
2023/07/05 09:13:31;;;;;;;7.63;0.90;;;;;;;;;;5091825;28;20085;-77
2023/07/05 09:16:04;;;;;;;6.13;1.15;;;;;;;;;;5090976;28;20094;-85
2023/07/05 09:18:48;;;;;;;6.22;1.00;;;;;;;;;;5077812;28;20127;-81
2023/07/05 09:21:14;;;;;;;4.22;0.70;;;;;;;;;;5090393;28;20047;-79
2023/07/05 09:23:59;;;;;;;6.10;0.90;;;;;;;;;;5074031;28;20044;-81
2023/07/05 09:26:27;;;;;;;8.95;1.00;;;;;;;;;;5091178;28;20485;-85
2023/07/05 09:28:58;;;;;;;6.10;0.70;;;;;;;;;;5090736;28;20040;-81
2023/07/05 09:31:25;;;;;;;4.60;0.70;;;;;;;;;;5072989;28;20048;-74
2023/07/05 09:34:01;;;;;;;6.15;0.95;;;;;;;;;;5089818;28;20035;-76
2023/07/05 09:36:27;;;;;;;4.97;0.77;;;;;;;;;;5090619;28;20040;-76
2023/07/05 09:38:56;;;;;;;7.40;0.95;;;;;;;;;;5089759;28;20392;-74
2023/07/05 09:41:35;;;;;;;4.43;0.80;;;;;;;;;;5089952;28;20044;-78
2023/07/05 09:44:02;;;;;;;6.80;0.90;;;;;;;;;;5081222;28;20040;-77
2023/07/05 09:46:30;;;;;;;6.32;0.77;;;;;;;;;;5073147;28;20119;-76
2023/07/05 09:48:56;;;;;;;4.32;0.90;;;;;;;;;;5090901;28;20050;-79
2023/07/05 09:51:22;;;;;;;5.40;0.77;;;;;;;;;;5088568;28;20036;-76
2023/07/05 09:54:03;;;;;;;4.50;0.70;;;;;;;;;;5090170;28;20497;-80
2023/07/05 09:56:29;;;;;;;6.05;1.00;;;;;;;;;;5067706;28;20140;-73
2023/07/05 09:59:20;;;;;;;5.40;1.25;;;;;;;;;;5089258;28;20122;-76
2023/07/05 10:01:49;;;;;;;5.72;1.02;;;;;;;;;;5072712;28;20054;-77
2023/07/05 10:04:16;;;;;;;7.07;1.23;;;;;;;;;;5084222;28;20040;-73
2023/07/05 10:06:45;;;;;;;5.25;1.05;;;;;;;;;;5089951;28;20488;-76
2023/07/05 10:09:13;;;;;;;8.98;1.23;;;;;;;;;;5093753;28;20500;-76
2023/07/05 10:11:43;;;;;;;4.75;1.00;;;;;;;;;;5081935;28;20493;-77
2023/07/05 10:14:12;;;;;;;7.28;1.20;;;;;;;;;;5094202;28;20039;-76
2023/07/05 10:16:52;;;;;;;6.93;1.40;;;;;;;;;;5076115;28;20036;-77
2023/07/05 10:19:26;;;;;;;13.05;1.67;;;;;;;;;;5063840;28;20048;-76
2023/07/05 10:21:54;;;;;;;7.20;1.30;;;;;;;;;;5079990;28;20075;-75
2023/07/05 10:24:21;;;;;;;7.82;1.65;;;;;;;;;;5093529;28;20058;-76
2023/07/05 10:26:51;;;;;;;5.78;1.60;;;;;;;;;;5093401;28;20047;-77
2023/07/05 10:29:20;;;;;;;14.52;2.38;;;;;;;;;;5094142;28;20086;-75
2023/07/05 10:32:00;;;;;;;7.55;1.75;;;;;;;;;;5093305;28;20066;-74
2023/07/05 10:34:27;;;;;;;7.95;2.13;;;;;;;;;;5077720;28;20562;-74
2023/07/05 10:36:54;;;;;;;9.45;2.17;;;;;;;;;;5075575;28;20040;-76
2023/07/05 10:39:22;;;;;;;10.00;2.50;;;;;;;;;;5093562;28;20047;-76
2023/07/05 10:41:51;;;;;;;8.55;2.22;;;;;;;;;;5094407;28;20484;-75
2023/07/05 10:44:22;;;;;;;6.05;1.85;;;;;;;;;;5094739;28;20082;-75
2023/07/05 10:46:48;;;;;;;8.38;1.73;;;;;;;;;;5093598;28;20040;-77
2023/07/05 10:49:16;;;;;;;6.47;1.80;;;;;;;;;;5092650;28;20054;-74
2023/07/05 10:51:47;;;;;;;7.90;1.98;;;;;;;;;;5092453;28;20393;-77
2023/07/05 10:54:40;;;;;;;6.65;1.83;;;;;;;;;;5093597;28;20059;-78
2023/07/05 10:57:23;;;;;;;6.55;1.60;;;;;;;;;;5093363;28;20092;-75
2023/07/05 10:59:56;;;;;;;6.78;1.95;;;;;;;;;;5086153;28;20098;-74
2023/07/05 11:02:25;;;;;;;9.18;1.95;;;;;;;;;;5091966;28;20070;-78
2023/07/05 11:04:53;;;;;;;9.32;2.15;;;;;;;;;;5075330;28;20055;-79
2023/07/05 11:07:20;;;;;;;12.60;2.58;;;;;;;;;;5092904;28;20040;-80
2023/07/05 11:09:46;;;;;;;9.90;2.60;;;;;;;;;;5075077;28;20142;-80
2023/07/05 11:12:20;;;;;;;10.43;1.83;;;;;;;;;;5092458;28;20039;-80
2023/07/05 11:14:47;;;;;;;7.07;1.73;;;;;;;;;;5092461;28;20085;-79
2023/07/05 11:17:42;;;;;;;7.60;1.60;;;;;;;;;;5093737;28;20067;-79
2023/07/05 11:20:27;;;;;;;7.20;1.90;;;;;;;;;;5068433;28;20048;-79
2023/07/05 11:22:53;;;;;;;5.93;1.73;;;;;;;;;;5092046;28;20036;-79
2023/07/05 11:25:19;;;;;;;8.20;1.88;;;;;;;;;;5075755;28;20385;-78
2023/07/05 11:27:53;;;;;;;10.20;1.70;;;;;;;;;;5092243;28;20043;-78
2023/07/05 11:30:37;;;;;;;6.63;1.50;;;;;;;;;;5091063;28;20080;-82
2023/07/05 11:33:03;;;;;;;7.95;2.25;;;;;;;;;;5092261;28;20497;-78
2023/07/05 11:35:44;;;;;;;11.50;2.20;;;;;;;;;;5092979;28;20101;-79
2023/07/05 11:38:10;;;;;;;8.63;2.25;;;;;;;;;;5092776;28;20044;-77
2023/07/05 11:40:55;;;;;;;8.57;2.05;;;;;;;;;;5091485;28;20119;-79
2023/07/05 11:43:33;;;;;;;8.77;2.25;;;;;;;;;;5090406;28;20107;-75
2023/07/05 11:45:59;;;;;;;5.82;2.08;;;;;;;;;;5091891;28;20141;-75
2023/07/05 11:48:39;;;;;;;11.35;2.60;;;;;;;;;;5085808;28;20036;-74
2023/07/05 11:51:25;;;;;;;7.97;2.40;;;;;;;;;;5091755;28;20044;-79
2023/07/05 11:53:53;;;;;;;15.73;2.83;;;;;;;;;;5091139;28;20101;-80
2023/07/05 11:56:20;;;;;;;8.50;2.20;;;;;;;;;;5092320;28;20127;-77
2023/07/05 11:58:47;;;;;;;9.10;2.30;;;;;;;;;;5074832;28;20059;-77
2023/07/05 12:01:19;;;;;;;11.10;2.92;;;;;;;;;;5074868;28;20139;-77
2023/07/05 12:03:52;;;;;;;10.65;3.30;;;;;;;;;;5091902;28;20142;-75
2023/07/05 12:06:21;;;;;;;8.68;2.90;;;;;;;;;;5092330;28;20507;-77
2023/07/05 12:08:48;;;;;;;8.65;2.70;;;;;;;;;;5092195;28;20496;-76
2023/07/05 12:11:26;;;;;;;9.70;2.33;;;;;;;;;;5092022;28;20532;-78
2023/07/05 12:13:52;;;;;;;11.40;2.65;;;;;;;;;;5090607;28;20055;-76
2023/07/05 12:16:19;;;;;;;10.60;2.40;;;;;;;;;;5091329;28;20044;-75
2023/07/05 12:18:46;;;;;;;12.48;2.97;;;;;;;;;;5091791;28;20036;-82
2023/07/05 12:21:12;;;;;;;11.38;2.60;;;;;;;;;;5091537;28;20071;-76
2023/07/05 12:23:38;;;;;;;10.20;2.33;;;;;;;;;;5092691;28;20119;-84
2023/07/05 12:26:05;;;;;;;7.47;1.90;;;;;;;;;;5092206;28;20044;-80
2023/07/05 12:28:32;;;;;;;8.98;2.10;;;;;;;;;;5084022;28;20512;-79
2023/07/05 12:31:19;;;;;;;6.43;1.90;;;;;;;;;;5091185;28;20040;-77
2023/07/05 12:33:53;;;;;;;9.85;2.25;;;;;;;;;;5107782;28;20054;-80
2023/07/05 12:36:20;;;;;;;11.55;2.47;;;;;;;;;;5074479;28;20607;-83
2023/07/05 12:38:47;;;;;;;9.93;2.25;;;;;;;;;;5091455;28;20505;-83
2023/07/05 12:41:26;;;;;;;11.73;2.30;;;;;;;;;;5087735;28;20040;-78
2023/07/05 12:43:59;;;;;;;11.90;2.10;;;;;;;;;;5090873;28;20039;-75
2023/07/05 12:46:26;;;;;;;10.80;1.98;;;;;;;;;;5090797;28;20050;-74
2023/07/05 12:48:53;;;;;;;10.57;2.30;;;;;;;;;;5073770;28;20043;-76
2023/07/05 12:51:21;;;;;;;8.70;2.40;;;;;;;;;;5090097;28;20035;-76
2023/07/05 12:53:48;;;;;;;6.13;1.90;;;;;;;;;;5084610;28;20126;-79
2023/07/05 12:56:19;;;;;;;8.65;2.45;;;;;;;;;;5073602;28;20803;-76
2023/07/05 12:59:09;;;;;;;11.77;2.50;;;;;;;;;;5090765;28;20072;-78
2023/07/05 13:01:37;;;;;;;6.97;2.38;;;;;;;;;;5076796;28;20086;-77
2023/07/05 13:04:14;;;;;;;9.73;2.85;;;;;;;;;;5074023;28;20370;-77
2023/07/05 13:06:41;;;;;;;9.43;2.55;;;;;;;;;;5090549;28;20062;-78
2023/07/05 13:09:07;;;;;;;11.45;2.92;;;;;;;;;;5090563;28;20076;-78
2023/07/05 13:11:34;;;;;;;14.93;3.03;;;;;;;;;;5073843;28;20043;-77
2023/07/05 13:14:04;;;;;;;11.70;2.60;;;;;;;;;;5091661;28;20100;-76
2023/07/05 13:16:32;;;;;;;5.88;2.35;;;;;;;;;;5074030;28;20453;-76
2023/07/05 13:19:08;;;;;;;8.75;2.42;;;;;;;;;;5090222;28;20052;-78
2023/07/05 13:21:37;;;;;;;7.68;2.65;;;;;;;;;;5090487;28;20039;-77
2023/07/05 13:24:07;;;;;;;6.55;2.50;;;;;;;;;;5090602;28;20044;-76
2023/07/05 13:26:36;;;;;;;6.40;2.30;;;;;;;;;;5088340;28;20051;-77
2023/07/05 13:29:03;;;;;;;6.70;2.17;;;;;;;;;;5091751;28;20050;-76
2023/07/05 13:31:29;;;;;;;7.90;2.53;;;;;;;;;;5090813;28;20520;-77
2023/07/05 13:33:56;;;;;;;8.02;2.80;;;;;;;;;;5090402;28;20097;-75
2023/07/05 13:36:22;;;;;;;7.47;2.20;;;;;;;;;;5091945;28;20040;-77
2023/07/05 13:38:48;;;;;;;7.32;2.10;;;;;;;;;;5090225;28;20040;-76
2023/07/05 13:41:22;;;;;;;9.02;2.60;;;;;;;;;;5090387;28;20040;-76
2023/07/05 13:43:48;;;;;;;7.20;2.20;;;;;;;;;;5092270;28;20032;-77
2023/07/05 13:46:14;;;;;;;8.40;2.40;;;;;;;;;;5094259;28;20040;-76
2023/07/05 13:48:40;;;;;;;11.15;2.30;;;;;;;;;;5094429;28;20043;-77
2023/07/05 13:51:11;;;;;;;6.90;3.05;;;;;;;;;;5094214;28;20512;-75
2023/07/05 13:53:37;;;;;;;8.68;2.20;;;;;;;;;;5092158;28;20040;-76
2023/07/05 13:56:03;;;;;;;8.85;2.50;;;;;;;;;;5091122;28;20040;-77
2023/07/05 13:58:30;;;;;;;9.27;2.47;;;;;;;;;;5092833;28;20063;-76
2023/07/05 14:00:56;;;;;;;8.55;2.30;;;;;;;;;;5092179;28;20124;-78
2023/07/05 14:03:23;;;;;;;9.60;1.98;;;;;;;;;;5076572;28;20052;-76
2023/07/05 14:05:49;;;;;;;7.25;2.50;;;;;;;;;;5077489;28;20381;-76
2023/07/05 14:08:16;;;;;;;8.63;2.40;;;;;;;;;;5093704;28;20093;-76
2023/07/05 14:10:47;;;;;;;5.88;2.30;;;;;;;;;;5076758;28;20437;-77
2023/07/05 14:13:14;;;;;;;8.07;2.10;;;;;;;;;;5093978;28;20035;-76
2023/07/05 14:15:41;;;;;;;9.27;2.63;;;;;;;;;;5093978;28;20040;-76
2023/07/05 14:18:11;;;;;;;8.77;2.47;;;;;;;;;;5094653;28;20050;-77
2023/07/05 14:20:38;;;;;;;6.22;2.10;;;;;;;;;;5075720;28;20493;-75
2023/07/05 14:23:06;;;;;;;7.65;2.28;;;;;;;;;;5093719;28;20485;-76
2023/07/05 14:25:39;;;;;;;7.68;2.20;;;;;;;;;;5092625;28;20036;-76
2023/07/05 14:28:05;;;;;;;8.23;2.30;;;;;;;;;;5075880;28;20059;-77
2023/07/05 14:30:31;;;;;;;8.70;2.80;;;;;;;;;;5095156;28;20079;-75
2023/07/05 14:32:57;;;;;;;9.48;2.40;;;;;;;;;;5067862;28;20388;-75
2023/07/05 14:35:23;;;;;;;8.57;2.10;;;;;;;;;;5093087;28;20483;-74
2023/07/05 14:37:51;;;;;;;5.97;2.88;;;;;;;;;;5068081;28;20032;-75
2023/07/05 14:40:17;;;;;;;7.20;2.50;;;;;;;;;;5092043;28;20512;-76
2023/07/05 14:42:44;;;;;;;7.25;2.35;;;;;;;;;;5094681;28;20031;-76
2023/07/05 14:45:24;;;;;;;6.47;2.20;;;;;;;;;;5074254;28;20046;-76